Last 30 Days

AM-Summit 8643' (Ward Mt.)

Daily Data | America/Los_Angeles
as of 10/6/22 8:02 PM PDT
Date Daily Max Temp (°F) Time of Max Temp Daily Min Temp (°F) Time of Min Temp Wind Spd (mph) Daily Max Wind (mph) Time of Max Wind Max Wind Dir (°) Dew Pt (°F) Max RH (%) Min RH (%) Max Wet Bulb Temp (°F) Min Wet Bulb Temp (°F) WetB Hrs <28F (hrs) Min Wind Chill (°F) MinBV Day (V)
10/5/22 67.9 1559 49.7 0445 0.0 0.0 0742 N | 10 31.3 56 29 51.2 38.6 0.0 - 13.0
10/4/22 66.8 1618 47.0 0716 0.0 0.0 1052 ENE | 63 28.1 50 25 49.2 35.7 0.0 - 13.0
10/3/22 68.5 1702 46.6 0456 0.0 0.0 2113 NNE | 17 30.6 64 20 47.6 39.0 0.0 49.6 13.0
10/2/22 64.1 1631 45.5 0556 0.0 0.0 1059 N | 10 34.7 81 26 49.6 37.6 0.0 47.4 13.0
10/1/22 65.1 1626 41.9 0655 0.0 0.0 1034 NNE | 12 36.1 80 37 50.5 38.2 0.0 46.6 13.0
9/30/22 68.7 1607 45.3 0546 0.0 0.0 0825 NNE | 15 34.0 69 26 52.1 38.0 0.0 - 13.0
9/29/22 61.3 1648 46.7 0519 0.0 0.1 1429 ENE | 66 33.0 63 36 47.4 38.0 0.0 47.0 13.0
9/28/22 62.5 1609 46.8 2347 0.0 0.2 2144 S | 170 29.9 55 34 47.5 38.4 0.0 - 13.0
9/27/22 67.6 1543 52.0 2132 0.0 0.1 1055 S | 183 35.7 62 20 54.3 37.5 0.0 - 13.0
9/26/22 70.1 1618 54.6 0621 - 0.3 1020 NE | 50 40.2 65 33 53.9 44.4 0.0 - 13.0
9/25/22 70.6 1600 50.8 0651 0.0 0.2 1745 NE | 42 35.5 59 31 55.0 39.1 0.0 - 13.0
9/24/22 69.4 1603 48.2 0622 0.0 0.4 1445 ENE | 57 34.0 60 33 53.0 36.9 0.0 48.9 13.0
9/23/22 65.1 1616 41.2 0533 - 0.0 1201 N | 5 38.8 90 35 51.6 39.3 0.0 43.1 13.0
9/22/22 58.5 1649 35.2 0001 - 0.1 1148 ENE | 58 37.7 100 46 48.8 34.2 0.0 35.2 13.0
9/21/22 40.3 1150 33.4 1336 - 0.0 0302 E | 97 36.2 100 92 39.7 33.2 0.0 38.0 13.0
9/20/22 39.2 1647 35.2 0540 - 0.0 2025 ENE | 59 37.2 100 93 39.1 35.2 0.0 36.6 13.0
9/19/22 47.0 1341 33.1 0719 - 0.0 2135 W | 274 37.0 100 80 44.9 33.0 0.0 37.8 13.0
9/18/22 52.3 1646 35.4 0452 - 0.0 1647 NNE | 27 31.6 96 40 42.2 30.8 0.0 39.4 13.0
9/17/22 55.0 1621 38.7 2325 - 0.0 1046 NNE | 14 32.1 91 40 45.4 30.8 0.0 44.6 13.0
9/16/22 56.1 1240 42.2 0513 - 0.0 2327 NNE | 29 29.7 80 27 44.7 32.2 0.0 44.6 13.0
9/15/22 56.6 1458 40.8 0534 - 0.0 0051 NNE | 28 32.0 88 27 45.9 33.3 0.0 42.8 13.0
9/14/22 57.3 1530 41.5 2032 - 0.0 1646 NNE | 21 36.1 91 47 47.2 38.0 0.0 44.5 13.0
9/13/22 60.7 1521 43.6 2122 - 0.0 1333 N | 9 40.1 96 43 49.5 39.5 0.0 49.8 13.0
9/12/22 56.8 1226 49.7 2353 - 0.2 0930 NE | 49 46.8 97 60 52.4 47.6 0.0 - 13.0
9/11/22 69.2 1123 54.1 2023 0.0 0.2 0930 WSW | 255 39.5 74 36 54.0 42.6 0.0 - 13.0
9/10/22 68.8 1424 58.0 0700 - 0.2 0924 NE | 42 39.6 56 26 54.4 43.7 0.0 - 13.0
9/9/22 78.8 1454 58.4 0656 - 0.1 2029 ESE | 118 33.7 42 20 55.2 44.4 0.0 - 13.0
9/8/22 77.4 1246 63.3 0700 0.0 0.5 0937 E | 88 36.8 39 21 54.6 46.6 0.0 - 13.0
9/7/22 80.9 1501 66.4 2102 0.0 0.2 0840 NE | 52 35.8 35 22 56.2 48.1 0.0 - 13.0
9/6/22 85.6 1640 65.4 0628 - 0.4 1144 SSE | 157 35.2 35 15 56.1 48.0 0.0 - 13.0
Max 85.6 - 66.4 - 0.0 0.5 - - 46.8 100 93 56.2 48.1 0.0 49.8 13.0
Avg - - - - 0.0 - - - 35.3 - - - - - - -
Min 39.2 - 33.1 - 0.0 0.0 - - 28.1 35 15 39.1 30.8 0.0 35.2 13.0